sensor_id;sensor_type;location;lat;lon;timestamp;temperature;humidity
28614;DHT22;15806;53.548;9.964;2023-05-27T00:01:27;10.30;99.90
28614;DHT22;15806;53.548;9.964;2023-05-27T00:03:08;10.20;99.90
28614;DHT22;15806;53.548;9.964;2023-05-27T00:04:48;10.30;99.90
28614;DHT22;15806;53.548;9.964;2023-05-27T00:06:29;10.20;99.90
28614;DHT22;15806;53.548;9.964;2023-05-27T00:08:09;10.20;99.90
28614;DHT22;15806;53.548;9.964;2023-05-27T00:09:50;10.20;99.90
28614;DHT22;15806;53.548;9.964;2023-05-27T00:11:30;10.20;99.90
28614;DHT22;15806;53.548;9.964;2023-05-27T00:13:11;10.10;99.90
28614;DHT22;15806;53.548;9.964;2023-05-27T00:14:51;10.10;99.90
28614;DHT22;15806;53.548;9.964;2023-05-27T00:16:32;10.10;99.90
28614;DHT22;15806;53.548;9.964;2023-05-27T00:18:12;10.10;99.90
28614;DHT22;15806;53.548;9.964;2023-05-27T00:19:53;10.10;99.90
28614;DHT22;15806;53.548;9.964;2023-05-27T00:21:33;10.10;99.90
28614;DHT22;15806;53.548;9.964;2023-05-27T00:23:14;10.00;99.90
28614;DHT22;15806;53.548;9.964;2023-05-27T00:24:55;10.00;99.90
28614;DHT22;15806;53.548;9.964;2023-05-27T00:26:35;10.00;99.90
28614;DHT22;15806;53.548;9.964;2023-05-27T00:28:16;10.00;99.90
28614;DHT22;15806;53.548;9.964;2023-05-27T00:29:56;10.00;99.90
28614;DHT22;15806;53.548;9.964;2023-05-27T00:31:37;10.00;99.90
28614;DHT22;15806;53.548;9.964;2023-05-27T00:33:17;10.00;99.90
28614;DHT22;15806;53.548;9.964;2023-05-27T00:34:58;10.00;99.90
28614;DHT22;15806;53.548;9.964;2023-05-27T00:36:38;10.00;99.90
28614;DHT22;15806;53.548;9.964;2023-05-27T00:38:19;10.00;99.90
28614;DHT22;15806;53.548;9.964;2023-05-27T00:39:59;9.90;99.90
28614;DHT22;15806;53.548;9.964;2023-05-27T00:41:43;9.90;99.90
28614;DHT22;15806;53.548;9.964;2023-05-27T00:43:27;10.00;99.90
28614;DHT22;15806;53.548;9.964;2023-05-27T00:45:09;9.90;99.90
28614;DHT22;15806;53.548;9.964;2023-05-27T00:46:49;9.90;99.90
28614;DHT22;15806;53.548;9.964;2023-05-27T00:48:30;9.90;99.90
28614;DHT22;15806;53.548;9.964;2023-05-27T00:50:11;9.90;99.90
28614;DHT22;15806;53.548;9.964;2023-05-27T00:51:52;10.00;99.90
28614;DHT22;15806;53.548;9.964;2023-05-27T00:53:42;9.90;99.90
28614;DHT22;15806;53.548;9.964;2023-05-27T00:55:24;10.00;99.90
28614;DHT22;15806;53.548;9.964;2023-05-27T00:57:05;10.00;99.90
28614;DHT22;15806;53.548;9.964;2023-05-27T00:58:45;10.00;99.90
28614;DHT22;15806;53.548;9.964;2023-05-27T01:00:26;9.90;99.90
28614;DHT22;15806;53.548;9.964;2023-05-27T01:02:07;10.00;99.90
28614;DHT22;15806;53.548;9.964;2023-05-27T01:03:47;9.90;99.90
28614;DHT22;15806;53.548;9.964;2023-05-27T01:05:28;9.90;99.90
28614;DHT22;15806;53.548;9.964;2023-05-27T01:09:29;9.90;99.90
28614;DHT22;15806;53.548;9.964;2023-05-27T01:11:12;9.90;99.90
28614;DHT22;15806;53.548;9.964;2023-05-27T01:13:03;9.90;99.90
28614;DHT22;15806;53.548;9.964;2023-05-27T01:14:49;9.90;99.90
28614;DHT22;15806;53.548;9.964;2023-05-27T01:16:32;9.90;99.90
28614;DHT22;15806;53.548;9.964;2023-05-27T01:18:15;9.90;99.90
28614;DHT22;15806;53.548;9.964;2023-05-27T01:19:56;9.90;99.90
28614;DHT22;15806;53.548;9.964;2023-05-27T01:21:37;9.80;99.90
28614;DHT22;15806;53.548;9.964;2023-05-27T01:23:20;9.80;99.90
28614;DHT22;15806;53.548;9.964;2023-05-27T01:25:00;9.80;99.90
28614;DHT22;15806;53.548;9.964;2023-05-27T01:26:42;9.80;99.90
28614;DHT22;15806;53.548;9.964;2023-05-27T01:28:22;9.80;99.90
28614;DHT22;15806;53.548;9.964;2023-05-27T01:30:03;9.80;99.90
28614;DHT22;15806;53.548;9.964;2023-05-27T01:32:01;9.80;99.90
28614;DHT22;15806;53.548;9.964;2023-05-27T01:33:53;9.80;99.90
28614;DHT22;15806;53.548;9.964;2023-05-27T01:35:44;9.80;99.90
28614;DHT22;15806;53.548;9.964;2023-05-27T01:37:29;9.80;99.90
28614;DHT22;15806;53.548;9.964;2023-05-27T01:39:12;9.70;99.90
28614;DHT22;15806;53.548;9.964;2023-05-27T01:40:54;9.80;99.90
28614;DHT22;15806;53.548;9.964;2023-05-27T01:42:35;9.80;99.90
28614;DHT22;15806;53.548;9.964;2023-05-27T01:44:17;9.80;99.90
28614;DHT22;15806;53.548;9.964;2023-05-27T01:45:59;9.80;99.90
28614;DHT22;15806;53.548;9.964;2023-05-27T01:47:39;9.70;99.90
28614;DHT22;15806;53.548;9.964;2023-05-27T01:49:20;9.70;99.90
28614;DHT22;15806;53.548;9.964;2023-05-27T01:51:00;9.70;99.90
28614;DHT22;15806;53.548;9.964;2023-05-27T01:52:41;9.70;99.90
28614;DHT22;15806;53.548;9.964;2023-05-27T01:54:21;9.70;99.90
28614;DHT22;15806;53.548;9.964;2023-05-27T01:56:02;9.70;99.90
28614;DHT22;15806;53.548;9.964;2023-05-27T01:57:43;9.70;99.90
28614;DHT22;15806;53.548;9.964;2023-05-27T01:59:24;9.70;99.90
28614;DHT22;15806;53.548;9.964;2023-05-27T02:01:04;9.70;99.90
28614;DHT22;15806;53.548;9.964;2023-05-27T02:02:45;9.70;99.90
28614;DHT22;15806;53.548;9.964;2023-05-27T02:04:25;9.70;99.90
28614;DHT22;15806;53.548;9.964;2023-05-27T02:06:06;9.70;99.90
28614;DHT22;15806;53.548;9.964;2023-05-27T02:07:46;9.60;99.90
28614;DHT22;15806;53.548;9.964;2023-05-27T02:09:27;9.60;99.90
28614;DHT22;15806;53.548;9.964;2023-05-27T02:11:07;9.60;99.90
28614;DHT22;15806;53.548;9.964;2023-05-27T02:12:48;9.60;99.90
28614;DHT22;15806;53.548;9.964;2023-05-27T02:14:28;9.60;99.90
28614;DHT22;15806;53.548;9.964;2023-05-27T02:16:09;9.60;99.90
28614;DHT22;15806;53.548;9.964;2023-05-27T02:17:50;9.60;99.90
28614;DHT22;15806;53.548;9.964;2023-05-27T02:19:30;9.50;99.90
28614;DHT22;15806;53.548;9.964;2023-05-27T02:21:11;9.60;99.90
28614;DHT22;15806;53.548;9.964;2023-05-27T02:22:51;9.60;99.90
28614;DHT22;15806;53.548;9.964;2023-05-27T02:24:32;9.60;99.90
28614;DHT22;15806;53.548;9.964;2023-05-27T02:26:12;9.50;99.90
28614;DHT22;15806;53.548;9.964;2023-05-27T02:27:53;9.50;99.90
28614;DHT22;15806;53.548;9.964;2023-05-27T02:29:33;9.60;99.90
28614;DHT22;15806;53.548;9.964;2023-05-27T02:31:14;9.60;99.90
28614;DHT22;15806;53.548;9.964;2023-05-27T02:32:54;9.60;99.90
28614;DHT22;15806;53.548;9.964;2023-05-27T02:34:35;9.60;99.90
28614;DHT22;15806;53.548;9.964;2023-05-27T02:36:15;9.60;99.90
28614;DHT22;15806;53.548;9.964;2023-05-27T02:37:56;9.60;99.90
28614;DHT22;15806;53.548;9.964;2023-05-27T02:39:37;9.60;99.90
28614;DHT22;15806;53.548;9.964;2023-05-27T02:41:18;9.60;99.90
28614;DHT22;15806;53.548;9.964;2023-05-27T02:42:58;9.60;99.90
28614;DHT22;15806;53.548;9.964;2023-05-27T02:44:39;9.60;99.90
28614;DHT22;15806;53.548;9.964;2023-05-27T02:46:19;9.50;99.90
28614;DHT22;15806;53.548;9.964;2023-05-27T02:48:00;9.60;99.90
28614;DHT22;15806;53.548;9.964;2023-05-27T02:49:40;9.50;99.90
28614;DHT22;15806;53.548;9.964;2023-05-27T02:51:21;9.50;99.90
28614;DHT22;15806;53.548;9.964;2023-05-27T02:53:02;9.50;99.90
28614;DHT22;15806;53.548;9.964;2023-05-27T02:54:42;9.60;99.90
28614;DHT22;15806;53.548;9.964;2023-05-27T02:56:23;9.50;99.90
28614;DHT22;15806;53.548;9.964;2023-05-27T02:58:03;9.50;99.90
28614;DHT22;15806;53.548;9.964;2023-05-27T02:59:44;9.50;99.90
28614;DHT22;15806;53.548;9.964;2023-05-27T03:01:25;9.50;99.90
28614;DHT22;15806;53.548;9.964;2023-05-27T03:03:05;9.50;99.90
28614;DHT22;15806;53.548;9.964;2023-05-27T03:04:46;9.50;99.90
28614;DHT22;15806;53.548;9.964;2023-05-27T03:06:26;9.60;99.90
28614;DHT22;15806;53.548;9.964;2023-05-27T03:08:07;9.60;99.90
28614;DHT22;15806;53.548;9.964;2023-05-27T03:09:47;9.50;99.90
28614;DHT22;15806;53.548;9.964;2023-05-27T03:11:28;9.50;99.90
28614;DHT22;15806;53.548;9.964;2023-05-27T03:13:08;9.50;99.90
28614;DHT22;15806;53.548;9.964;2023-05-27T03:14:50;9.60;99.90
28614;DHT22;15806;53.548;9.964;2023-05-27T03:16:30;9.50;99.90
28614;DHT22;15806;53.548;9.964;2023-05-27T03:18:12;9.50;99.90
28614;DHT22;15806;53.548;9.964;2023-05-27T03:19:53;9.50;99.90
28614;DHT22;15806;53.548;9.964;2023-05-27T03:21:33;9.50;99.90
28614;DHT22;15806;53.548;9.964;2023-05-27T03:23:14;9.50;99.90
28614;DHT22;15806;53.548;9.964;2023-05-27T03:24:54;9.50;99.90
28614;DHT22;15806;53.548;9.964;2023-05-27T03:26:35;9.60;99.90
28614;DHT22;15806;53.548;9.964;2023-05-27T03:28:15;9.50;99.90
28614;DHT22;15806;53.548;9.964;2023-05-27T03:29:56;9.50;99.90
28614;DHT22;15806;53.548;9.964;2023-05-27T03:31:37;9.50;99.90
28614;DHT22;15806;53.548;9.964;2023-05-27T03:33:17;9.40;99.90
28614;DHT22;15806;53.548;9.964;2023-05-27T03:34:58;9.50;99.90
28614;DHT22;15806;53.548;9.964;2023-05-27T03:36:38;9.40;99.90
28614;DHT22;15806;53.548;9.964;2023-05-27T03:38:19;9.40;99.90
28614;DHT22;15806;53.548;9.964;2023-05-27T03:39:59;9.40;99.90
28614;DHT22;15806;53.548;9.964;2023-05-27T03:41:40;9.40;99.90
28614;DHT22;15806;53.548;9.964;2023-05-27T03:43:21;9.40;99.90
28614;DHT22;15806;53.548;9.964;2023-05-27T03:45:02;9.50;99.90
28614;DHT22;15806;53.548;9.964;2023-05-27T03:46:42;9.40;99.90
28614;DHT22;15806;53.548;9.964;2023-05-27T03:48:23;9.50;99.90
28614;DHT22;15806;53.548;9.964;2023-05-27T03:50:04;9.50;99.90
28614;DHT22;15806;53.548;9.964;2023-05-27T03:51:45;9.50;99.90
28614;DHT22;15806;53.548;9.964;2023-05-27T03:53:25;9.50;99.90
28614;DHT22;15806;53.548;9.964;2023-05-27T03:55:06;9.50;99.90
28614;DHT22;15806;53.548;9.964;2023-05-27T03:56:47;9.50;99.90
28614;DHT22;15806;53.548;9.964;2023-05-27T03:58:27;9.50;99.90
28614;DHT22;15806;53.548;9.964;2023-05-27T04:00:08;9.50;99.90
28614;DHT22;15806;53.548;9.964;2023-05-27T04:01:49;9.50;99.90
28614;DHT22;15806;53.548;9.964;2023-05-27T04:03:29;9.50;99.90
28614;DHT22;15806;53.548;9.964;2023-05-27T04:05:10;9.50;99.90
28614;DHT22;15806;53.548;9.964;2023-05-27T04:06:50;9.50;99.90
28614;DHT22;15806;53.548;9.964;2023-05-27T04:08:31;9.50;99.90
28614;DHT22;15806;53.548;9.964;2023-05-27T04:10:12;9.50;99.90
28614;DHT22;15806;53.548;9.964;2023-05-27T04:11:52;9.50;99.90
28614;DHT22;15806;53.548;9.964;2023-05-27T04:13:33;9.50;99.90
28614;DHT22;15806;53.548;9.964;2023-05-27T04:15:13;9.60;99.90
28614;DHT22;15806;53.548;9.964;2023-05-27T04:16:54;9.50;99.90
28614;DHT22;15806;53.548;9.964;2023-05-27T04:18:34;9.60;99.90
28614;DHT22;15806;53.548;9.964;2023-05-27T04:20:15;9.60;99.90
28614;DHT22;15806;53.548;9.964;2023-05-27T04:21:55;9.60;99.90
28614;DHT22;15806;53.548;9.964;2023-05-27T04:23:36;9.60;99.90
28614;DHT22;15806;53.548;9.964;2023-05-27T04:25:16;9.70;99.90
28614;DHT22;15806;53.548;9.964;2023-05-27T04:26:57;9.70;99.90
28614;DHT22;15806;53.548;9.964;2023-05-27T04:28:37;9.70;99.90
28614;DHT22;15806;53.548;9.964;2023-05-27T04:30:18;9.70;99.90
28614;DHT22;15806;53.548;9.964;2023-05-27T04:31:58;9.70;99.90
28614;DHT22;15806;53.548;9.964;2023-05-27T04:33:39;9.70;99.90
28614;DHT22;15806;53.548;9.964;2023-05-27T04:35:20;9.80;99.90
28614;DHT22;15806;53.548;9.964;2023-05-27T04:37:00;9.80;99.90
28614;DHT22;15806;53.548;9.964;2023-05-27T04:38:41;9.80;99.90
28614;DHT22;15806;53.548;9.964;2023-05-27T04:40:21;9.80;99.90
28614;DHT22;15806;53.548;9.964;2023-05-27T04:42:02;9.90;99.90
28614;DHT22;15806;53.548;9.964;2023-05-27T04:43:42;9.80;99.90
28614;DHT22;15806;53.548;9.964;2023-05-27T04:45:23;9.90;99.90
28614;DHT22;15806;53.548;9.964;2023-05-27T04:47:04;9.90;99.90
28614;DHT22;15806;53.548;9.964;2023-05-27T04:48:45;9.90;99.90
28614;DHT22;15806;53.548;9.964;2023-05-27T04:50:26;9.90;99.90
28614;DHT22;15806;53.548;9.964;2023-05-27T04:52:06;9.90;99.90
28614;DHT22;15806;53.548;9.964;2023-05-27T04:53:47;10.00;99.90
28614;DHT22;15806;53.548;9.964;2023-05-27T04:55:27;10.00;99.90
28614;DHT22;15806;53.548;9.964;2023-05-27T04:57:08;10.00;99.90
28614;DHT22;15806;53.548;9.964;2023-05-27T04:58:48;10.00;99.90
28614;DHT22;15806;53.548;9.964;2023-05-27T05:00:29;10.00;99.90
28614;DHT22;15806;53.548;9.964;2023-05-27T05:02:10;10.10;99.90
28614;DHT22;15806;53.548;9.964;2023-05-27T05:03:50;10.10;99.90
28614;DHT22;15806;53.548;9.964;2023-05-27T05:05:31;10.10;99.90
28614;DHT22;15806;53.548;9.964;2023-05-27T05:07:12;10.20;99.90
28614;DHT22;15806;53.548;9.964;2023-05-27T05:08:52;10.20;99.90
28614;DHT22;15806;53.548;9.964;2023-05-27T05:10:33;10.20;99.90
28614;DHT22;15806;53.548;9.964;2023-05-27T05:12:13;10.30;99.90
28614;DHT22;15806;53.548;9.964;2023-05-27T05:13:54;10.30;99.90
28614;DHT22;15806;53.548;9.964;2023-05-27T05:15:34;10.30;99.90
28614;DHT22;15806;53.548;9.964;2023-05-27T05:17:15;10.30;99.90
28614;DHT22;15806;53.548;9.964;2023-05-27T05:18:55;10.30;99.90
28614;DHT22;15806;53.548;9.964;2023-05-27T05:20:36;10.40;99.90
28614;DHT22;15806;53.548;9.964;2023-05-27T05:22:17;10.40;99.90
28614;DHT22;15806;53.548;9.964;2023-05-27T05:23:58;10.40;99.90
28614;DHT22;15806;53.548;9.964;2023-05-27T05:25:38;10.50;99.90
28614;DHT22;15806;53.548;9.964;2023-05-27T05:27:19;10.50;99.90
28614;DHT22;15806;53.548;9.964;2023-05-27T05:28:59;10.50;99.90
28614;DHT22;15806;53.548;9.964;2023-05-27T05:30:40;10.60;99.90
28614;DHT22;15806;53.548;9.964;2023-05-27T05:32:20;10.60;99.90
28614;DHT22;15806;53.548;9.964;2023-05-27T05:34:01;10.70;99.90
28614;DHT22;15806;53.548;9.964;2023-05-27T05:35:41;10.70;99.90
28614;DHT22;15806;53.548;9.964;2023-05-27T05:37:22;10.70;99.90
28614;DHT22;15806;53.548;9.964;2023-05-27T05:39:03;10.80;99.90
28614;DHT22;15806;53.548;9.964;2023-05-27T05:40:44;10.80;99.90
28614;DHT22;15806;53.548;9.964;2023-05-27T05:42:24;10.80;99.90
28614;DHT22;15806;53.548;9.964;2023-05-27T05:44:05;10.80;99.90
28614;DHT22;15806;53.548;9.964;2023-05-27T05:45:46;10.90;99.90
28614;DHT22;15806;53.548;9.964;2023-05-27T05:47:26;10.90;99.90
28614;DHT22;15806;53.548;9.964;2023-05-27T05:49:07;11.00;99.90
28614;DHT22;15806;53.548;9.964;2023-05-27T05:50:48;11.00;99.90
28614;DHT22;15806;53.548;9.964;2023-05-27T05:52:28;11.10;99.90
28614;DHT22;15806;53.548;9.964;2023-05-27T05:54:09;11.10;99.90
28614;DHT22;15806;53.548;9.964;2023-05-27T05:55:49;11.10;99.90
28614;DHT22;15806;53.548;9.964;2023-05-27T05:57:30;11.10;99.90
28614;DHT22;15806;53.548;9.964;2023-05-27T05:59:10;11.20;99.90
28614;DHT22;15806;53.548;9.964;2023-05-27T06:00:51;11.20;99.90
28614;DHT22;15806;53.548;9.964;2023-05-27T06:02:32;11.20;99.90
28614;DHT22;15806;53.548;9.964;2023-05-27T06:04:12;11.30;99.90
28614;DHT22;15806;53.548;9.964;2023-05-27T06:05:53;11.30;99.90
28614;DHT22;15806;53.548;9.964;2023-05-27T06:07:33;11.40;99.90
28614;DHT22;15806;53.548;9.964;2023-05-27T06:09:14;11.50;99.90
28614;DHT22;15806;53.548;9.964;2023-05-27T06:10:55;11.60;99.90
28614;DHT22;15806;53.548;9.964;2023-05-27T06:12:35;11.60;99.90
28614;DHT22;15806;53.548;9.964;2023-05-27T06:14:16;11.60;99.90
28614;DHT22;15806;53.548;9.964;2023-05-27T06:15:56;11.70;99.90
28614;DHT22;15806;53.548;9.964;2023-05-27T06:17:37;11.70;99.90
28614;DHT22;15806;53.548;9.964;2023-05-27T06:19:17;11.70;99.90
28614;DHT22;15806;53.548;9.964;2023-05-27T06:20:58;11.70;99.90
28614;DHT22;15806;53.548;9.964;2023-05-27T06:22:38;11.70;99.90
28614;DHT22;15806;53.548;9.964;2023-05-27T06:24:19;11.70;99.90
28614;DHT22;15806;53.548;9.964;2023-05-27T06:26:00;11.80;99.90
28614;DHT22;15806;53.548;9.964;2023-05-27T06:27:40;11.90;99.90
28614;DHT22;15806;53.548;9.964;2023-05-27T06:29:21;11.90;99.90
28614;DHT22;15806;53.548;9.964;2023-05-27T06:31:01;11.90;99.90
28614;DHT22;15806;53.548;9.964;2023-05-27T06:32:42;11.90;99.90
28614;DHT22;15806;53.548;9.964;2023-05-27T06:34:22;11.90;99.90
28614;DHT22;15806;53.548;9.964;2023-05-27T06:36:03;11.90;99.90
28614;DHT22;15806;53.548;9.964;2023-05-27T06:37:44;12.00;99.90
28614;DHT22;15806;53.548;9.964;2023-05-27T06:39:24;12.10;99.90
28614;DHT22;15806;53.548;9.964;2023-05-27T06:41:05;12.20;99.90
28614;DHT22;15806;53.548;9.964;2023-05-27T06:42:45;12.50;99.90
28614;DHT22;15806;53.548;9.964;2023-05-27T06:44:26;13.20;99.90
28614;DHT22;15806;53.548;9.964;2023-05-27T06:46:06;14.00;99.90
28614;DHT22;15806;53.548;9.964;2023-05-27T06:47:47;14.70;99.90
28614;DHT22;15806;53.548;9.964;2023-05-27T06:49:28;14.80;99.90
28614;DHT22;15806;53.548;9.964;2023-05-27T06:51:08;14.10;99.90
28614;DHT22;15806;53.548;9.964;2023-05-27T06:52:49;13.80;1.00
28614;DHT22;15806;53.548;9.964;2023-05-27T06:54:29;14.20;1.00
28614;DHT22;15806;53.548;9.964;2023-05-27T06:56:10;14.50;99.90
28614;DHT22;15806;53.548;9.964;2023-05-27T06:57:51;15.40;19.30
28614;DHT22;15806;53.548;9.964;2023-05-27T06:59:31;15.40;99.90
28614;DHT22;15806;53.548;9.964;2023-05-27T07:01:12;15.50;1.00
28614;DHT22;15806;53.548;9.964;2023-05-27T07:02:52;15.90;1.00
28614;DHT22;15806;53.548;9.964;2023-05-27T07:04:33;16.50;99.90
28614;DHT22;15806;53.548;9.964;2023-05-27T07:06:14;17.00;1.00
28614;DHT22;15806;53.548;9.964;2023-05-27T07:07:54;16.90;99.90
28614;DHT22;15806;53.548;9.964;2023-05-27T07:09:35;17.70;99.90
28614;DHT22;15806;53.548;9.964;2023-05-27T07:11:15;17.10;1.00
28614;DHT22;15806;53.548;9.964;2023-05-27T07:12:56;17.30;1.00
28614;DHT22;15806;53.548;9.964;2023-05-27T07:14:36;17.50;1.00
28614;DHT22;15806;53.548;9.964;2023-05-27T07:16:17;17.40;1.00
28614;DHT22;15806;53.548;9.964;2023-05-27T07:17:58;18.00;99.90
28614;DHT22;15806;53.548;9.964;2023-05-27T07:19:38;17.80;99.90
28614;DHT22;15806;53.548;9.964;2023-05-27T07:21:19;17.50;99.90
28614;DHT22;15806;53.548;9.964;2023-05-27T07:23:00;17.10;99.90
28614;DHT22;15806;53.548;9.964;2023-05-27T07:24:40;17.70;99.90
28614;DHT22;15806;53.548;9.964;2023-05-27T07:26:21;17.80;99.90
28614;DHT22;15806;53.548;9.964;2023-05-27T07:28:01;18.00;99.90
28614;DHT22;15806;53.548;9.964;2023-05-27T07:29:42;18.50;99.90
28614;DHT22;15806;53.548;9.964;2023-05-27T07:31:22;18.60;99.90
28614;DHT22;15806;53.548;9.964;2023-05-27T07:33:03;18.90;92.00
28614;DHT22;15806;53.548;9.964;2023-05-27T07:34:43;19.10;41.40
28614;DHT22;15806;53.548;9.964;2023-05-27T07:36:24;19.60;12.40
28614;DHT22;15806;53.548;9.964;2023-05-27T07:38:05;19.80;1.00
28614;DHT22;15806;53.548;9.964;2023-05-27T07:39:45;19.90;1.00
28614;DHT22;15806;53.548;9.964;2023-05-27T07:43:14;19.60;1.00
28614;DHT22;15806;53.548;9.964;2023-05-27T07:44:54;20.00;1.00
28614;DHT22;15806;53.548;9.964;2023-05-27T07:46:35;19.90;1.00
28614;DHT22;15806;53.548;9.964;2023-05-27T07:48:15;19.40;1.00
28614;DHT22;15806;53.548;9.964;2023-05-27T07:49:56;19.90;1.00
28614;DHT22;15806;53.548;9.964;2023-05-27T07:51:36;19.30;1.00
28614;DHT22;15806;53.548;9.964;2023-05-27T07:53:18;19.20;1.00
28614;DHT22;15806;53.548;9.964;2023-05-27T07:54:59;19.30;1.00
28614;DHT22;15806;53.548;9.964;2023-05-27T07:56:39;19.50;1.00
28614;DHT22;15806;53.548;9.964;2023-05-27T07:58:20;20.50;1.00
28614;DHT22;15806;53.548;9.964;2023-05-27T08:00:01;20.40;1.00
28614;DHT22;15806;53.548;9.964;2023-05-27T08:01:42;20.80;1.00
28614;DHT22;15806;53.548;9.964;2023-05-27T08:03:22;20.90;1.00
28614;DHT22;15806;53.548;9.964;2023-05-27T08:05:03;22.00;1.00
28614;DHT22;15806;53.548;9.964;2023-05-27T08:06:44;21.50;1.00
28614;DHT22;15806;53.548;9.964;2023-05-27T08:08:24;22.00;99.90
28614;DHT22;15806;53.548;9.964;2023-05-27T08:10:05;22.70;99.90
28614;DHT22;15806;53.548;9.964;2023-05-27T08:11:46;22.80;99.90
28614;DHT22;15806;53.548;9.964;2023-05-27T08:13:26;22.60;99.90
28614;DHT22;15806;53.548;9.964;2023-05-27T08:15:08;22.20;99.90
28614;DHT22;15806;53.548;9.964;2023-05-27T08:16:48;22.70;99.90
28614;DHT22;15806;53.548;9.964;2023-05-27T08:18:29;22.50;99.90
28614;DHT22;15806;53.548;9.964;2023-05-27T08:20:10;23.00;99.90
28614;DHT22;15806;53.548;9.964;2023-05-27T08:21:52;23.80;99.90
28614;DHT22;15806;53.548;9.964;2023-05-27T08:23:34;23.60;99.90
28614;DHT22;15806;53.548;9.964;2023-05-27T08:25:14;24.30;99.90
28614;DHT22;15806;53.548;9.964;2023-05-27T08:26:55;22.20;99.90
28614;DHT22;15806;53.548;9.964;2023-05-27T08:28:36;22.10;99.90
28614;DHT22;15806;53.548;9.964;2023-05-27T08:30:17;22.00;99.90
28614;DHT22;15806;53.548;9.964;2023-05-27T08:31:58;20.70;99.90
28614;DHT22;15806;53.548;9.964;2023-05-27T08:33:39;21.30;99.90
28614;DHT22;15806;53.548;9.964;2023-05-27T08:35:20;21.70;99.90
28614;DHT22;15806;53.548;9.964;2023-05-27T08:37:00;21.60;99.90
28614;DHT22;15806;53.548;9.964;2023-05-27T08:38:41;21.10;99.90
28614;DHT22;15806;53.548;9.964;2023-05-27T08:40:22;22.20;99.90
28614;DHT22;15806;53.548;9.964;2023-05-27T08:42:02;22.30;99.90
28614;DHT22;15806;53.548;9.964;2023-05-27T08:43:45;22.90;99.90
28614;DHT22;15806;53.548;9.964;2023-05-27T08:45:25;24.20;99.90
28614;DHT22;15806;53.548;9.964;2023-05-27T08:47:07;24.40;99.90
28614;DHT22;15806;53.548;9.964;2023-05-27T08:48:48;23.60;99.90
28614;DHT22;15806;53.548;9.964;2023-05-27T08:50:29;22.10;99.90
28614;DHT22;15806;53.548;9.964;2023-05-27T08:52:10;22.80;99.90
28614;DHT22;15806;53.548;9.964;2023-05-27T08:53:52;24.10;99.90
28614;DHT22;15806;53.548;9.964;2023-05-27T08:55:33;23.10;99.90
28614;DHT22;15806;53.548;9.964;2023-05-27T08:57:18;21.20;99.90
28614;DHT22;15806;53.548;9.964;2023-05-27T08:58:59;21.70;99.90
28614;DHT22;15806;53.548;9.964;2023-05-27T09:00:40;19.90;99.90
28614;DHT22;15806;53.548;9.964;2023-05-27T09:02:22;20.90;99.90
28614;DHT22;15806;53.548;9.964;2023-05-27T09:04:03;21.00;99.90
28614;DHT22;15806;53.548;9.964;2023-05-27T09:05:43;21.00;99.90
28614;DHT22;15806;53.548;9.964;2023-05-27T09:07:24;21.30;99.90
28614;DHT22;15806;53.548;9.964;2023-05-27T09:09:07;23.20;99.90
28614;DHT22;15806;53.548;9.964;2023-05-27T09:10:47;23.40;99.90
28614;DHT22;15806;53.548;9.964;2023-05-27T09:12:28;23.80;99.90
28614;DHT22;15806;53.548;9.964;2023-05-27T09:14:11;22.40;99.90
28614;DHT22;15806;53.548;9.964;2023-05-27T09:16:01;20.70;99.90
28614;DHT22;15806;53.548;9.964;2023-05-27T09:17:43;21.60;99.90
28614;DHT22;15806;53.548;9.964;2023-05-27T09:19:25;20.40;99.90
28614;DHT22;15806;53.548;9.964;2023-05-27T09:21:06;20.50;99.90
28614;DHT22;15806;53.548;9.964;2023-05-27T09:22:48;21.20;99.90
28614;DHT22;15806;53.548;9.964;2023-05-27T09:24:28;20.90;99.90
28614;DHT22;15806;53.548;9.964;2023-05-27T09:26:10;20.50;99.90
28614;DHT22;15806;53.548;9.964;2023-05-27T09:27:51;20.60;99.90
28614;DHT22;15806;53.548;9.964;2023-05-27T09:29:32;21.80;99.90
28614;DHT22;15806;53.548;9.964;2023-05-27T09:31:18;21.00;99.90
28614;DHT22;15806;53.548;9.964;2023-05-27T09:33:02;21.70;99.90
28614;DHT22;15806;53.548;9.964;2023-05-27T09:34:42;22.10;99.90
28614;DHT22;15806;53.548;9.964;2023-05-27T09:36:26;22.60;99.90
28614;DHT22;15806;53.548;9.964;2023-05-27T09:38:07;22.80;99.90
28614;DHT22;15806;53.548;9.964;2023-05-27T09:39:47;22.70;99.90
28614;DHT22;15806;53.548;9.964;2023-05-27T09:41:31;22.60;99.90
28614;DHT22;15806;53.548;9.964;2023-05-27T09:43:15;22.00;99.90
28614;DHT22;15806;53.548;9.964;2023-05-27T09:44:56;21.00;99.90
28614;DHT22;15806;53.548;9.964;2023-05-27T09:46:36;20.00;99.90
28614;DHT22;15806;53.548;9.964;2023-05-27T09:48:18;19.70;99.90
28614;DHT22;15806;53.548;9.964;2023-05-27T09:49:59;19.80;99.90
28614;DHT22;15806;53.548;9.964;2023-05-27T09:51:41;19.50;99.90
28614;DHT22;15806;53.548;9.964;2023-05-27T09:53:24;19.30;99.90
28614;DHT22;15806;53.548;9.964;2023-05-27T09:55:06;18.80;99.90
28614;DHT22;15806;53.548;9.964;2023-05-27T09:56:47;18.40;99.90
28614;DHT22;15806;53.548;9.964;2023-05-27T09:58:29;18.60;99.90
28614;DHT22;15806;53.548;9.964;2023-05-27T10:00:11;18.70;99.90
28614;DHT22;15806;53.548;9.964;2023-05-27T10:01:53;18.50;99.90
28614;DHT22;15806;53.548;9.964;2023-05-27T10:03:44;18.80;99.90
28614;DHT22;15806;53.548;9.964;2023-05-27T10:05:26;18.40;99.90
28614;DHT22;15806;53.548;9.964;2023-05-27T10:07:08;18.30;99.90
28614;DHT22;15806;53.548;9.964;2023-05-27T10:08:49;18.60;99.90
28614;DHT22;15806;53.548;9.964;2023-05-27T10:10:30;18.40;99.90
28614;DHT22;15806;53.548;9.964;2023-05-27T10:12:14;18.20;99.90
28614;DHT22;15806;53.548;9.964;2023-05-27T10:13:55;18.20;99.90
28614;DHT22;15806;53.548;9.964;2023-05-27T10:15:36;18.20;99.90
28614;DHT22;15806;53.548;9.964;2023-05-27T10:17:16;18.20;99.90
28614;DHT22;15806;53.548;9.964;2023-05-27T10:18:57;18.60;99.90
28614;DHT22;15806;53.548;9.964;2023-05-27T10:20:41;18.50;99.90
28614;DHT22;15806;53.548;9.964;2023-05-27T10:22:23;18.40;99.90
28614;DHT22;15806;53.548;9.964;2023-05-27T10:24:03;18.10;99.90
28614;DHT22;15806;53.548;9.964;2023-05-27T10:25:55;17.80;99.90
28614;DHT22;15806;53.548;9.964;2023-05-27T10:27:44;17.70;99.90
28614;DHT22;15806;53.548;9.964;2023-05-27T10:29:35;17.90;99.90
28614;DHT22;15806;53.548;9.964;2023-05-27T10:31:19;18.10;99.90
28614;DHT22;15806;53.548;9.964;2023-05-27T10:32:59;18.00;99.90
28614;DHT22;15806;53.548;9.964;2023-05-27T10:34:45;17.40;99.90
28614;DHT22;15806;53.548;9.964;2023-05-27T10:36:27;17.70;99.90
28614;DHT22;15806;53.548;9.964;2023-05-27T10:38:17;18.80;99.90
28614;DHT22;15806;53.548;9.964;2023-05-27T10:39:58;19.50;99.90
28614;DHT22;15806;53.548;9.964;2023-05-27T10:41:53;19.20;99.90
28614;DHT22;15806;53.548;9.964;2023-05-27T10:43:34;18.70;99.90
28614;DHT22;15806;53.548;9.964;2023-05-27T10:45:15;19.40;99.90
28614;DHT22;15806;53.548;9.964;2023-05-27T10:47:00;20.80;99.90
28614;DHT22;15806;53.548;9.964;2023-05-27T10:48:41;21.90;99.90